sensor_id;sensor_type;location;lat;lon;timestamp;P1;P2;P0
76238;PMS7003;65043;48.392;-4.472;2023-08-24T00:01:22;7.00;4.75;3.00
76238;PMS7003;65043;48.392;-4.472;2023-08-24T00:03:47;7.00;4.50;3.00
76238;PMS7003;65043;48.392;-4.472;2023-08-24T00:06:16;5.25;5.25;3.00
76238;PMS7003;65043;48.392;-4.472;2023-08-24T00:08:41;4.75;3.25;3.00
76238;PMS7003;65043;48.392;-4.472;2023-08-24T00:11:07;5.50;5.50;3.25
76238;PMS7003;65043;48.392;-4.472;2023-08-24T00:13:33;4.50;4.50;3.00
76238;PMS7003;65043;48.392;-4.472;2023-08-24T00:15:58;4.25;4.00;3.00
76238;PMS7003;65043;48.392;-4.472;2023-08-24T00:18:24;7.50;5.75;2.75
76238;PMS7003;65043;48.392;-4.472;2023-08-24T00:20:50;4.50;3.50;3.00
76238;PMS7003;65043;48.392;-4.472;2023-08-24T00:23:16;4.25;4.00;3.00
76238;PMS7003;65043;48.392;-4.472;2023-08-24T00:25:42;6.25;6.25;3.75
76238;PMS7003;65043;48.392;-4.472;2023-08-24T00:28:07;4.75;4.50;2.25
76238;PMS7003;65043;48.392;-4.472;2023-08-24T00:30:33;4.00;4.00;2.75
76238;PMS7003;65043;48.392;-4.472;2023-08-24T00:32:58;4.00;4.00;3.25
76238;PMS7003;65043;48.392;-4.472;2023-08-24T00:35:24;4.75;4.75;3.00
76238;PMS7003;65043;48.392;-4.472;2023-08-24T00:37:50;3.00;3.00;2.00
76238;PMS7003;65043;48.392;-4.472;2023-08-24T00:40:16;3.00;3.00;2.00
76238;PMS7003;65043;48.392;-4.472;2023-08-24T00:42:42;4.00;4.00;2.00
76238;PMS7003;65043;48.392;-4.472;2023-08-24T00:45:10;4.00;4.00;3.00
76238;PMS7003;65043;48.392;-4.472;2023-08-24T00:47:36;6.50;4.50;3.00
76238;PMS7003;65043;48.392;-4.472;2023-08-24T00:50:03;5.75;5.50;4.00
76238;PMS7003;65043;48.392;-4.472;2023-08-24T00:52:30;7.25;4.75;3.50
76238;PMS7003;65043;48.392;-4.472;2023-08-24T00:55:00;4.25;3.00;3.00
76238;PMS7003;65043;48.392;-4.472;2023-08-24T00:57:27;6.00;4.25;3.00
76238;PMS7003;65043;48.392;-4.472;2023-08-24T00:59:54;9.75;5.75;4.00
76238;PMS7003;65043;48.392;-4.472;2023-08-24T01:02:21;5.25;4.50;3.75
76238;PMS7003;65043;48.392;-4.472;2023-08-24T01:04:46;6.75;4.25;3.25
76238;PMS7003;65043;48.392;-4.472;2023-08-24T01:07:12;8.50;7.00;4.00
76238;PMS7003;65043;48.392;-4.472;2023-08-24T01:09:38;6.75;5.75;3.00
76238;PMS7003;65043;48.392;-4.472;2023-08-24T01:12:11;6.50;5.25;4.00
76238;PMS7003;65043;48.392;-4.472;2023-08-24T01:17:42;7.75;6.50;4.00
76238;PMS7003;65043;48.392;-4.472;2023-08-24T01:20:09;6.25;6.25;4.00
76238;PMS7003;65043;48.392;-4.472;2023-08-24T01:27:56;7.00;6.25;3.25
76238;PMS7003;65043;48.392;-4.472;2023-08-24T01:30:23;7.00;6.25;5.00
76238;PMS7003;65043;48.392;-4.472;2023-08-24T01:32:49;7.00;6.00;3.50
76238;PMS7003;65043;48.392;-4.472;2023-08-24T01:35:14;4.75;4.75;2.75
76238;PMS7003;65043;48.392;-4.472;2023-08-24T01:37:42;5.00;4.25;3.25
76238;PMS7003;65043;48.392;-4.472;2023-08-24T01:40:20;6.25;5.75;4.00
76238;PMS7003;65043;48.392;-4.472;2023-08-24T01:43:02;6.50;5.00;3.75
76238;PMS7003;65043;48.392;-4.472;2023-08-24T01:45:31;4.50;4.00;3.00
76238;PMS7003;65043;48.392;-4.472;2023-08-24T01:47:59;6.25;5.50;4.00
76238;PMS7003;65043;48.392;-4.472;2023-08-24T01:50:28;6.75;5.50;4.50
76238;PMS7003;65043;48.392;-4.472;2023-08-24T01:52:54;6.00;4.25;3.00
76238;PMS7003;65043;48.392;-4.472;2023-08-24T01:55:20;6.25;6.25;3.25
76238;PMS7003;65043;48.392;-4.472;2023-08-24T01:57:46;8.25;8.25;4.00
76238;PMS7003;65043;48.392;-4.472;2023-08-24T02:00:13;13.00;8.00;4.50
76238;PMS7003;65043;48.392;-4.472;2023-08-24T02:02:38;7.50;6.25;4.00
76238;PMS7003;65043;48.392;-4.472;2023-08-24T02:05:04;7.50;4.75;3.50
76238;PMS7003;65043;48.392;-4.472;2023-08-24T02:07:29;7.00;5.50;2.00
76238;PMS7003;65043;48.392;-4.472;2023-08-24T02:09:55;7.25;4.00;3.00
76238;PMS7003;65043;48.392;-4.472;2023-08-24T02:12:21;7.50;6.75;3.25
76238;PMS7003;65043;48.392;-4.472;2023-08-24T02:14:46;10.75;7.00;4.00
76238;PMS7003;65043;48.392;-4.472;2023-08-24T02:17:12;7.00;5.25;3.50
76238;PMS7003;65043;48.392;-4.472;2023-08-24T02:19:38;4.50;4.00;3.00
76238;PMS7003;65043;48.392;-4.472;2023-08-24T02:22:03;7.50;6.25;5.00
76238;PMS7003;65043;48.392;-4.472;2023-08-24T02:24:29;6.50;4.50;3.75
76238;PMS7003;65043;48.392;-4.472;2023-08-24T02:26:54;7.00;5.00;3.25
76238;PMS7003;65043;48.392;-4.472;2023-08-24T02:29:20;6.25;5.25;4.00
76238;PMS7003;65043;48.392;-4.472;2023-08-24T02:31:45;5.75;5.75;4.75
76238;PMS7003;65043;48.392;-4.472;2023-08-24T02:34:11;10.75;5.50;4.00
76238;PMS7003;65043;48.392;-4.472;2023-08-24T02:36:36;7.25;5.00;3.00
76238;PMS7003;65043;48.392;-4.472;2023-08-24T02:39:02;5.75;5.75;3.75
76238;PMS7003;65043;48.392;-4.472;2023-08-24T02:41:27;7.00;4.75;3.00
76238;PMS7003;65043;48.392;-4.472;2023-08-24T02:43:53;8.25;6.50;4.00
76238;PMS7003;65043;48.392;-4.472;2023-08-24T02:46:20;7.75;6.50;5.00
76238;PMS7003;65043;48.392;-4.472;2023-08-24T02:48:46;7.00;6.50;4.00
76238;PMS7003;65043;48.392;-4.472;2023-08-24T02:51:12;8.75;5.00;4.00
76238;PMS7003;65043;48.392;-4.472;2023-08-24T02:53:38;9.00;6.50;5.25
76238;PMS7003;65043;48.392;-4.472;2023-08-24T02:56:03;6.00;5.00;4.00
76238;PMS7003;65043;48.392;-4.472;2023-08-24T02:58:29;7.25;4.75;3.00
76238;PMS7003;65043;48.392;-4.472;2023-08-24T03:00:55;8.25;6.25;4.00
76238;PMS7003;65043;48.392;-4.472;2023-08-24T03:03:21;6.50;5.00;3.75
76238;PMS7003;65043;48.392;-4.472;2023-08-24T03:06:02;5.00;5.00;3.00
76238;PMS7003;65043;48.392;-4.472;2023-08-24T03:08:32;8.25;6.00;4.25
76238;PMS7003;65043;48.392;-4.472;2023-08-24T03:11:00;5.00;4.00;3.25
76238;PMS7003;65043;48.392;-4.472;2023-08-24T03:13:29;6.50;6.50;4.00
76238;PMS7003;65043;48.392;-4.472;2023-08-24T03:15:55;7.25;7.00;4.25
76238;PMS7003;65043;48.392;-4.472;2023-08-24T03:18:21;8.00;7.25;5.00
76238;PMS7003;65043;48.392;-4.472;2023-08-24T03:20:47;6.25;6.00;5.00
76238;PMS7003;65043;48.392;-4.472;2023-08-24T03:23:14;7.25;7.25;5.25
76238;PMS7003;65043;48.392;-4.472;2023-08-24T03:25:40;7.25;7.25;5.00
76238;PMS7003;65043;48.392;-4.472;2023-08-24T03:28:07;11.00;7.25;4.75
76238;PMS7003;65043;48.392;-4.472;2023-08-24T03:30:37;7.75;6.50;4.00
76238;PMS7003;65043;48.392;-4.472;2023-08-24T03:33:04;6.25;4.50;3.50
76238;PMS7003;65043;48.392;-4.472;2023-08-24T03:35:30;5.50;5.00;3.25
76238;PMS7003;65043;48.392;-4.472;2023-08-24T03:37:56;8.75;5.50;4.00
76238;PMS7003;65043;48.392;-4.472;2023-08-24T03:40:22;6.00;3.50;2.00
76238;PMS7003;65043;48.392;-4.472;2023-08-24T03:42:47;5.75;5.25;4.00
76238;PMS7003;65043;48.392;-4.472;2023-08-24T03:45:13;6.50;5.00;4.00
76238;PMS7003;65043;48.392;-4.472;2023-08-24T03:47:41;8.25;6.75;3.75
76238;PMS7003;65043;48.392;-4.472;2023-08-24T03:50:07;9.50;6.00;4.00
76238;PMS7003;65043;48.392;-4.472;2023-08-24T03:52:33;5.50;5.50;4.75
76238;PMS7003;65043;48.392;-4.472;2023-08-24T03:55:01;4.75;4.00;3.00
76238;PMS7003;65043;48.392;-4.472;2023-08-24T03:57:26;6.50;6.50;3.75
76238;PMS7003;65043;48.392;-4.472;2023-08-24T03:59:52;7.25;7.25;5.00
76238;PMS7003;65043;48.392;-4.472;2023-08-24T04:02:18;7.25;5.00;4.00
76238;PMS7003;65043;48.392;-4.472;2023-08-24T04:04:45;11.75;5.25;4.00
76238;PMS7003;65043;48.392;-4.472;2023-08-24T04:07:11;9.25;8.50;5.00
76238;PMS7003;65043;48.392;-4.472;2023-08-24T04:09:36;7.00;7.00;5.00
76238;PMS7003;65043;48.392;-4.472;2023-08-24T04:12:02;7.00;7.00;5.25
76238;PMS7003;65043;48.392;-4.472;2023-08-24T04:14:28;6.50;6.50;4.00
76238;PMS7003;65043;48.392;-4.472;2023-08-24T04:16:53;7.50;7.50;5.25
76238;PMS7003;65043;48.392;-4.472;2023-08-24T04:19:19;10.00;8.00;5.75
76238;PMS7003;65043;48.392;-4.472;2023-08-24T04:21:44;9.00;7.50;5.25
76238;PMS7003;65043;48.392;-4.472;2023-08-24T04:24:10;8.75;7.75;5.75
76238;PMS7003;65043;48.392;-4.472;2023-08-24T04:26:35;10.00;7.25;6.00
76238;PMS7003;65043;48.392;-4.472;2023-08-24T04:29:01;11.00;10.00;5.25
76238;PMS7003;65043;48.392;-4.472;2023-08-24T04:31:27;7.25;6.75;4.50
76238;PMS7003;65043;48.392;-4.472;2023-08-24T04:33:52;8.25;7.50;5.50
76238;PMS7003;65043;48.392;-4.472;2023-08-24T04:36:18;8.00;8.00;5.25
76238;PMS7003;65043;48.392;-4.472;2023-08-24T04:38:43;10.00;10.00;6.25
76238;PMS7003;65043;48.392;-4.472;2023-08-24T04:41:09;9.50;5.75;4.25
76238;PMS7003;65043;48.392;-4.472;2023-08-24T04:43:35;9.50;8.00;5.75
76238;PMS7003;65043;48.392;-4.472;2023-08-24T04:46:04;6.50;6.25;4.00
76238;PMS7003;65043;48.392;-4.472;2023-08-24T04:48:29;5.75;5.75;4.00
76238;PMS7003;65043;48.392;-4.472;2023-08-24T04:50:59;11.50;7.75;5.00
76238;PMS7003;65043;48.392;-4.472;2023-08-24T04:53:28;9.50;9.50;6.00
76238;PMS7003;65043;48.392;-4.472;2023-08-24T04:55:54;12.75;10.50;6.50
76238;PMS7003;65043;48.392;-4.472;2023-08-24T04:58:20;11.50;9.50;6.25
76238;PMS7003;65043;48.392;-4.472;2023-08-24T05:00:46;10.00;9.50;6.50
76238;PMS7003;65043;48.392;-4.472;2023-08-24T05:03:11;9.25;7.25;4.75
76238;PMS7003;65043;48.392;-4.472;2023-08-24T05:05:39;9.25;8.00;5.25
76238;PMS7003;65043;48.392;-4.472;2023-08-24T05:08:05;10.25;9.75;7.00
76238;PMS7003;65043;48.392;-4.472;2023-08-24T05:10:32;10.25;10.25;6.25
76238;PMS7003;65043;48.392;-4.472;2023-08-24T05:12:59;13.25;8.75;7.50
76238;PMS7003;65043;48.392;-4.472;2023-08-24T05:15:24;14.00;8.75;6.75
76238;PMS7003;65043;48.392;-4.472;2023-08-24T05:17:50;9.00;8.50;6.00
76238;PMS7003;65043;48.392;-4.472;2023-08-24T05:20:23;12.00;10.75;8.25
76238;PMS7003;65043;48.392;-4.472;2023-08-24T05:22:49;12.75;12.00;9.25
76238;PMS7003;65043;48.392;-4.472;2023-08-24T05:25:14;14.00;10.50;7.00
76238;PMS7003;65043;48.392;-4.472;2023-08-24T05:27:45;10.50;9.25;7.00
76238;PMS7003;65043;48.392;-4.472;2023-08-24T05:30:10;11.75;10.25;6.50
76238;PMS7003;65043;48.392;-4.472;2023-08-24T05:32:36;8.50;8.50;7.00
76238;PMS7003;65043;48.392;-4.472;2023-08-24T05:35:04;7.75;7.75;5.50
76238;PMS7003;65043;48.392;-4.472;2023-08-24T05:37:30;12.00;9.75;5.00
76238;PMS7003;65043;48.392;-4.472;2023-08-24T05:39:55;7.75;7.00;5.25
76238;PMS7003;65043;48.392;-4.472;2023-08-24T05:42:21;6.00;5.75;5.25
76238;PMS7003;65043;48.392;-4.472;2023-08-24T05:44:49;9.50;6.25;4.25
76238;PMS7003;65043;48.392;-4.472;2023-08-24T05:47:15;10.25;8.25;6.00
76238;PMS7003;65043;48.392;-4.472;2023-08-24T05:49:41;11.00;9.00;6.25
76238;PMS7003;65043;48.392;-4.472;2023-08-24T05:52:06;7.75;7.00;5.25
76238;PMS7003;65043;48.392;-4.472;2023-08-24T05:54:32;7.25;7.25;4.25
76238;PMS7003;65043;48.392;-4.472;2023-08-24T05:56:58;5.00;4.75;3.50
76238;PMS7003;65043;48.392;-4.472;2023-08-24T05:59:25;7.50;6.50;5.25
76238;PMS7003;65043;48.392;-4.472;2023-08-24T06:01:51;11.00;6.50;4.75
76238;PMS7003;65043;48.392;-4.472;2023-08-24T06:04:17;6.75;6.50;4.25
76238;PMS7003;65043;48.392;-4.472;2023-08-24T06:06:42;7.50;7.50;4.00
76238;PMS7003;65043;48.392;-4.472;2023-08-24T06:09:08;5.50;4.00;3.00
76238;PMS7003;65043;48.392;-4.472;2023-08-24T06:11:35;4.00;3.75;2.75
76238;PMS7003;65043;48.392;-4.472;2023-08-24T06:14:00;5.00;5.00;3.25
76238;PMS7003;65043;48.392;-4.472;2023-08-24T06:16:27;7.75;7.25;5.00
76238;PMS7003;65043;48.392;-4.472;2023-08-24T06:18:53;6.25;6.25;4.25
76238;PMS7003;65043;48.392;-4.472;2023-08-24T06:21:19;7.00;5.75;4.00
76238;PMS7003;65043;48.392;-4.472;2023-08-24T06:23:44;8.00;6.75;3.75
76238;PMS7003;65043;48.392;-4.472;2023-08-24T06:26:12;6.00;6.00;4.50
76238;PMS7003;65043;48.392;-4.472;2023-08-24T06:28:40;5.00;5.00;3.00
76238;PMS7003;65043;48.392;-4.472;2023-08-24T06:31:08;5.25;4.50;2.75
76238;PMS7003;65043;48.392;-4.472;2023-08-24T06:33:34;7.00;6.25;3.00
76238;PMS7003;65043;48.392;-4.472;2023-08-24T06:35:59;6.75;5.00;3.25
76238;PMS7003;65043;48.392;-4.472;2023-08-24T06:38:27;6.50;5.00;3.00
76238;PMS7003;65043;48.392;-4.472;2023-08-24T06:40:54;8.50;7.75;5.25
76238;PMS7003;65043;48.392;-4.472;2023-08-24T06:43:20;7.25;5.50;3.50
76238;PMS7003;65043;48.392;-4.472;2023-08-24T06:45:45;5.75;4.75;3.50
76238;PMS7003;65043;48.392;-4.472;2023-08-24T06:48:11;6.50;6.25;3.50
76238;PMS7003;65043;48.392;-4.472;2023-08-24T06:50:36;8.75;6.75;4.00
76238;PMS7003;65043;48.392;-4.472;2023-08-24T06:53:02;5.75;4.25;3.00
76238;PMS7003;65043;48.392;-4.472;2023-08-24T06:55:29;4.00;3.25;3.00
76238;PMS7003;65043;48.392;-4.472;2023-08-24T06:57:59;5.25;5.25;3.75
76238;PMS7003;65043;48.392;-4.472;2023-08-24T07:00:25;10.00;5.50;3.75
76238;PMS7003;65043;48.392;-4.472;2023-08-24T07:02:50;7.00;5.00;4.25
76238;PMS7003;65043;48.392;-4.472;2023-08-24T07:05:16;9.50;9.00;6.00
76238;PMS7003;65043;48.392;-4.472;2023-08-24T07:07:51;13.00;7.00;5.00
76238;PMS7003;65043;48.392;-4.472;2023-08-24T07:10:18;12.75;9.50;6.00
76238;PMS7003;65043;48.392;-4.472;2023-08-24T07:12:47;9.50;8.00;5.25
76238;PMS7003;65043;48.392;-4.472;2023-08-24T07:15:12;7.00;6.00;4.00
76238;PMS7003;65043;48.392;-4.472;2023-08-24T07:17:38;7.75;7.75;5.25
76238;PMS7003;65043;48.392;-4.472;2023-08-24T07:20:04;10.75;8.00;5.50
76238;PMS7003;65043;48.392;-4.472;2023-08-24T07:22:31;14.25;9.00;5.50
76238;PMS7003;65043;48.392;-4.472;2023-08-24T07:24:57;10.00;7.25;5.75
76238;PMS7003;65043;48.392;-4.472;2023-08-24T07:27:25;7.50;6.25;5.00
76238;PMS7003;65043;48.392;-4.472;2023-08-24T07:29:50;9.00;9.00;5.25
76238;PMS7003;65043;48.392;-4.472;2023-08-24T07:32:18;14.50;11.00;6.25
76238;PMS7003;65043;48.392;-4.472;2023-08-24T07:34:44;10.75;6.25;4.50
76238;PMS7003;65043;48.392;-4.472;2023-08-24T07:37:10;7.00;5.75;4.00
76238;PMS7003;65043;48.392;-4.472;2023-08-24T07:39:37;11.00;8.25;6.25
76238;PMS7003;65043;48.392;-4.472;2023-08-24T07:42:03;9.50;8.25;6.50
76238;PMS7003;65043;48.392;-4.472;2023-08-24T07:44:28;9.50;7.75;4.25
76238;PMS7003;65043;48.392;-4.472;2023-08-24T07:46:54;11.00;5.25;4.00
76238;PMS7003;65043;48.392;-4.472;2023-08-24T07:49:20;7.50;7.50;5.00
76238;PMS7003;65043;48.392;-4.472;2023-08-24T07:51:48;12.50;12.50;7.50
76238;PMS7003;65043;48.392;-4.472;2023-08-24T07:54:13;8.50;7.25;5.00
76238;PMS7003;65043;48.392;-4.472;2023-08-24T07:56:39;12.25;9.00;6.25
76238;PMS7003;65043;48.392;-4.472;2023-08-24T07:59:05;9.25;7.25;4.75
76238;PMS7003;65043;48.392;-4.472;2023-08-24T08:01:30;8.00;8.00;5.00
76238;PMS7003;65043;48.392;-4.472;2023-08-24T08:03:56;12.25;9.25;4.75
76238;PMS7003;65043;48.392;-4.472;2023-08-24T08:06:22;8.25;7.75;5.00
76238;PMS7003;65043;48.392;-4.472;2023-08-24T08:08:49;9.25;9.25;5.00
76238;PMS7003;65043;48.392;-4.472;2023-08-24T08:11:16;8.50;5.75;4.00
76238;PMS7003;65043;48.392;-4.472;2023-08-24T08:13:42;10.75;7.25;4.00
76238;PMS7003;65043;48.392;-4.472;2023-08-24T08:16:08;8.75;7.00;5.00
76238;PMS7003;65043;48.392;-4.472;2023-08-24T08:18:34;13.25;9.00;6.00
76238;PMS7003;65043;48.392;-4.472;2023-08-24T08:21:01;9.50;6.25;5.00
76238;PMS7003;65043;48.392;-4.472;2023-08-24T08:23:33;8.25;7.50;5.25
76238;PMS7003;65043;48.392;-4.472;2023-08-24T08:26:02;6.00;5.00;2.50
76238;PMS7003;65043;48.392;-4.472;2023-08-24T08:28:28;8.00;8.00;4.00
76238;PMS7003;65043;48.392;-4.472;2023-08-24T08:30:59;5.00;5.00;4.00
76238;PMS7003;65043;48.392;-4.472;2023-08-24T08:33:28;10.00;8.75;5.25
76238;PMS7003;65043;48.392;-4.472;2023-08-24T08:35:56;6.75;5.25;4.00
76238;PMS7003;65043;48.392;-4.472;2023-08-24T08:38:21;4.25;4.00;1.75
76238;PMS7003;65043;48.392;-4.472;2023-08-24T08:40:50;6.50;6.50;4.00
76238;PMS7003;65043;48.392;-4.472;2023-08-24T08:43:18;10.00;7.25;4.00
76238;PMS7003;65043;48.392;-4.472;2023-08-24T08:45:49;7.25;5.50;4.00
76238;PMS7003;65043;48.392;-4.472;2023-08-24T08:48:17;9.25;6.00;3.00
76238;PMS7003;65043;48.392;-4.472;2023-08-24T08:50:46;6.75;6.75;4.00
76238;PMS7003;65043;48.392;-4.472;2023-08-24T08:53:20;8.25;6.00;4.00
76238;PMS7003;65043;48.392;-4.472;2023-08-24T08:55:47;9.50;4.25;3.00
76238;PMS7003;65043;48.392;-4.472;2023-08-24T08:58:18;9.50;5.50;3.00
76238;PMS7003;65043;48.392;-4.472;2023-08-24T09:00:47;6.75;5.50;4.00
76238;PMS7003;65043;48.392;-4.472;2023-08-24T09:03:18;4.00;4.00;3.00
76238;PMS7003;65043;48.392;-4.472;2023-08-24T09:05:45;7.25;4.00;3.75
76238;PMS7003;65043;48.392;-4.472;2023-08-24T09:08:15;7.25;7.25;5.25
76238;PMS7003;65043;48.392;-4.472;2023-08-24T09:10:46;7.75;5.00;4.00
76238;PMS7003;65043;48.392;-4.472;2023-08-24T09:13:15;6.25;5.50;4.00
76238;PMS7003;65043;48.392;-4.472;2023-08-24T09:15:40;6.75;6.75;4.00
76238;PMS7003;65043;48.392;-4.472;2023-08-24T09:18:10;6.75;4.00;3.00
76238;PMS7003;65043;48.392;-4.472;2023-08-24T09:20:36;6.75;4.75;4.00
76238;PMS7003;65043;48.392;-4.472;2023-08-24T09:23:02;9.25;7.75;5.00
76238;PMS7003;65043;48.392;-4.472;2023-08-24T09:25:30;6.75;6.75;3.00
76238;PMS7003;65043;48.392;-4.472;2023-08-24T09:28:21;9.50;7.25;4.25
76238;PMS7003;65043;48.392;-4.472;2023-08-24T09:30:49;7.50;5.50;3.75
76238;PMS7003;65043;48.392;-4.472;2023-08-24T09:33:17;6.75;4.25;4.00
76238;PMS7003;65043;48.392;-4.472;2023-08-24T09:35:53;8.50;7.50;4.25
76238;PMS7003;65043;48.392;-4.472;2023-08-24T09:38:26;6.00;6.00;4.00
76238;PMS7003;65043;48.392;-4.472;2023-08-24T09:40:57;8.25;8.25;7.25
76238;PMS7003;65043;48.392;-4.472;2023-08-24T09:43:25;9.00;8.00;6.25
76238;PMS7003;65043;48.392;-4.472;2023-08-24T09:45:53;14.00;8.75;6.25
76238;PMS7003;65043;48.392;-4.472;2023-08-24T09:48:23;11.50;10.25;7.25
76238;PMS7003;65043;48.392;-4.472;2023-08-24T09:50:51;9.50;9.50;6.25
76238;PMS7003;65043;48.392;-4.472;2023-08-24T09:53:24;8.50;7.50;6.25
76238;PMS7003;65043;48.392;-4.472;2023-08-24T09:55:53;10.25;7.50;5.25
76238;PMS7003;65043;48.392;-4.472;2023-08-24T09:58:26;7.75;7.75;5.00
76238;PMS7003;65043;48.392;-4.472;2023-08-24T10:00:52;8.50;8.25;5.00
76238;PMS7003;65043;48.392;-4.472;2023-08-24T10:03:24;10.50;7.50;5.50
76238;PMS7003;65043;48.392;-4.472;2023-08-24T10:05:52;13.00;10.25;6.75
76238;PMS7003;65043;48.392;-4.472;2023-08-24T10:08:29;11.00;7.25;5.50
76238;PMS7003;65043;48.392;-4.472;2023-08-24T10:11:00;9.75;8.50;5.00
76238;PMS7003;65043;48.392;-4.472;2023-08-24T10:13:35;5.25;4.25;3.75
76238;PMS7003;65043;48.392;-4.472;2023-08-24T10:16:06;10.50;5.25;4.00
76238;PMS7003;65043;48.392;-4.472;2023-08-24T10:18:38;7.25;5.00;4.00
76238;PMS7003;65043;48.392;-4.472;2023-08-24T10:21:08;9.50;8.00;4.25
76238;PMS7003;65043;48.392;-4.472;2023-08-24T10:23:36;5.75;5.50;3.75
76238;PMS7003;65043;48.392;-4.472;2023-08-24T10:26:03;6.75;6.75;5.00
76238;PMS7003;65043;48.392;-4.472;2023-08-24T10:28:38;5.75;4.25;4.00
76238;PMS7003;65043;48.392;-4.472;2023-08-24T10:31:04;5.75;4.75;3.50
76238;PMS7003;65043;48.392;-4.472;2023-08-24T10:33:33;5.00;4.75;3.00
76238;PMS7003;65043;48.392;-4.472;2023-08-24T10:36:16;5.25;5.25;3.25
76238;PMS7003;65043;48.392;-4.472;2023-08-24T10:38:50;6.75;3.50;2.00
76238;PMS7003;65043;48.392;-4.472;2023-08-24T10:41:20;6.50;4.00;3.00
76238;PMS7003;65043;48.392;-4.472;2023-08-24T10:43:51;4.75;4.25;3.00
76238;PMS7003;65043;48.392;-4.472;2023-08-24T10:46:19;5.50;3.50;2.00
76238;PMS7003;65043;48.392;-4.472;2023-08-24T10:53:58;4.25;4.25;3.00
76238;PMS7003;65043;48.392;-4.472;2023-08-24T10:56:29;7.00;4.75;4.00
76238;PMS7003;65043;48.392;-4.472;2023-08-24T10:59:12;6.25;5.75;3.00
76238;PMS7003;65043;48.392;-4.472;2023-08-24T11:04:17;4.75;4.00;3.00
76238;PMS7003;65043;48.392;-4.472;2023-08-24T11:09:49;4.00;4.00;2.75
76238;PMS7003;65043;48.392;-4.472;2023-08-24T11:12:15;3.25;3.25;3.00
76238;PMS7003;65043;48.392;-4.472;2023-08-24T11:14:52;3.25;2.00;2.00
76238;PMS7003;65043;48.392;-4.472;2023-08-24T11:17:29;3.25;3.25;3.00
76238;PMS7003;65043;48.392;-4.472;2023-08-24T11:19:57;8.00;4.00;3.00
76238;PMS7003;65043;48.392;-4.472;2023-08-24T11:22:46;4.50;4.00;3.00
76238;PMS7003;65043;48.392;-4.472;2023-08-24T11:25:13;4.75;1.75;1.00
76238;PMS7003;65043;48.392;-4.472;2023-08-24T11:27:42;5.75;4.25;3.25
76238;PMS7003;65043;48.392;-4.472;2023-08-24T11:30:11;3.00;3.00;2.00
76238;PMS7003;65043;48.392;-4.472;2023-08-24T11:32:36;5.75;3.00;2.00
76238;PMS7003;65043;48.392;-4.472;2023-08-24T11:35:07;4.00;2.00;2.00
76238;PMS7003;65043;48.392;-4.472;2023-08-24T11:37:37;2.00;2.00;1.00
76238;PMS7003;65043;48.392;-4.472;2023-08-24T11:40:06;3.00;3.00;2.00
76238;PMS7003;65043;48.392;-4.472;2023-08-24T11:42:43;4.25;4.25;2.00
76238;PMS7003;65043;48.392;-4.472;2023-08-24T11:45:12;3.00;2.00;1.50
76238;PMS7003;65043;48.392;-4.472;2023-08-24T11:47:40;3.00;2.75;2.00
76238;PMS7003;65043;48.392;-4.472;2023-08-24T11:50:07;2.00;2.00;2.00
76238;PMS7003;65043;48.392;-4.472;2023-08-24T11:52:38;3.75;2.50;2.00
76238;PMS7003;65043;48.392;-4.472;2023-08-24T11:55:06;2.75;2.75;2.00
76238;PMS7003;65043;48.392;-4.472;2023-08-24T11:57:34;5.75;3.00;2.00
76238;PMS7003;65043;48.392;-4.472;2023-08-24T12:00:03;2.00;2.00;1.50
76238;PMS7003;65043;48.392;-4.472;2023-08-24T12:02:32;2.00;2.00;2.00
76238;PMS7003;65043;48.392;-4.472;2023-08-24T12:05:01;1.75;1.75;1.25
76238;PMS7003;65043;48.392;-4.472;2023-08-24T12:07:33;2.00;2.00;1.00
76238;PMS7003;65043;48.392;-4.472;2023-08-24T12:10:01;3.00;2.75;2.00
76238;PMS7003;65043;48.392;-4.472;2023-08-24T12:12:29;2.00;2.00;1.25
76238;PMS7003;65043;48.392;-4.472;2023-08-24T12:14:57;2.50;2.00;1.00
76238;PMS7003;65043;48.392;-4.472;2023-08-24T12:17:25;3.50;2.00;1.00
76238;PMS7003;65043;48.392;-4.472;2023-08-24T12:19:58;1.00;1.00;0.75
76238;PMS7003;65043;48.392;-4.472;2023-08-24T12:22:43;1.00;1.00;0.25
76238;PMS7003;65043;48.392;-4.472;2023-08-24T12:25:08;2.00;2.00;1.00
76238;PMS7003;65043;48.392;-4.472;2023-08-24T12:27:44;2.00;2.00;1.00
76238;PMS7003;65043;48.392;-4.472;2023-08-24T12:30:17;2.00;2.00;1.25
76238;PMS7003;65043;48.392;-4.472;2023-08-24T12:32:46;2.75;1.25;1.00
76238;PMS7003;65043;48.392;-4.472;2023-08-24T12:35:15;2.50;2.00;1.00
76238;PMS7003;65043;48.392;-4.472;2023-08-24T12:37:41;3.00;3.00;1.00
76238;PMS7003;65043;48.392;-4.472;2023-08-24T12:40:13;2.50;2.50;2.00
76238;PMS7003;65043;48.392;-4.472;2023-08-24T12:42:46;3.50;3.00;1.00
76238;PMS7003;65043;48.392;-4.472;2023-08-24T12:45:12;3.00;3.00;2.25
76238;PMS7003;65043;48.392;-4.472;2023-08-24T12:47:44;3.00;2.00;1.00
76238;PMS7003;65043;48.392;-4.472;2023-08-24T12:50:10;1.00;1.00;0.50
76238;PMS7003;65043;48.392;-4.472;2023-08-24T12:52:37;3.50;2.00;1.75
76238;PMS7003;65043;48.392;-4.472;2023-08-24T12:55:06;2.00;2.00;1.00
76238;PMS7003;65043;48.392;-4.472;2023-08-24T12:57:34;4.00;2.00;1.00
76238;PMS7003;65043;48.392;-4.472;2023-08-24T13:00:02;3.75;2.25;1.00
76238;PMS7003;65043;48.392;-4.472;2023-08-24T13:02:37;2.75;2.00;1.25
76238;PMS7003;65043;48.392;-4.472;2023-08-24T13:05:12;2.50;2.00;1.00
76238;PMS7003;65043;48.392;-4.472;2023-08-24T13:07:40;3.25;2.00;1.50
76238;PMS7003;65043;48.392;-4.472;2023-08-24T13:10:09;4.25;4.25;1.25
76238;PMS7003;65043;48.392;-4.472;2023-08-24T13:12:38;1.00;1.00;1.00
76238;PMS7003;65043;48.392;-4.472;2023-08-24T13:15:05;4.25;3.00;2.00
76238;PMS7003;65043;48.392;-4.472;2023-08-24T13:17:34;2.75;2.25;1.50
76238;PMS7003;65043;48.392;-4.472;2023-08-24T13:19:59;2.00;1.50;1.25
76238;PMS7003;65043;48.392;-4.472;2023-08-24T13:22:27;4.00;2.00;1.00
76238;PMS7003;65043;48.392;-4.472;2023-08-24T13:24:58;3.00;2.00;1.00
76238;PMS7003;65043;48.392;-4.472;2023-08-24T13:27:26;2.00;2.00;1.50
76238;PMS7003;65043;48.392;-4.472;2023-08-24T13:29:56;3.00;2.00;1.00
76238;PMS7003;65043;48.392;-4.472;2023-08-24T13:32:28;2.00;2.00;1.50
76238;PMS7003;65043;48.392;-4.472;2023-08-24T13:34:53;2.75;2.00;2.00
76238;PMS7003;65043;48.392;-4.472;2023-08-24T13:37:23;3.50;2.00;1.00
76238;PMS7003;65043;48.392;-4.472;2023-08-24T13:39:49;2.50;2.25;2.00
76238;PMS7003;65043;48.392;-4.472;2023-08-24T13:42:18;3.75;2.50;1.25
76238;PMS7003;65043;48.392;-4.472;2023-08-24T13:44:46;2.00;2.00;1.00
76238;PMS7003;65043;48.392;-4.472;2023-08-24T13:47:15;2.25;2.25;1.25
76238;PMS7003;65043;48.392;-4.472;2023-08-24T13:49:54;2.50;2.00;1.50
76238;PMS7003;65043;48.392;-4.472;2023-08-24T13:52:22;3.50;3.25;2.00
76238;PMS7003;65043;48.392;-4.472;2023-08-24T13:54:47;3.50;2.25;1.00
76238;PMS7003;65043;48.392;-4.472;2023-08-24T13:57:15;3.25;2.00;1.25
76238;PMS7003;65043;48.392;-4.472;2023-08-24T13:59:42;2.75;2.00;1.00
76238;PMS7003;65043;48.392;-4.472;2023-08-24T14:02:08;2.75;1.25;1.00
76238;PMS7003;65043;48.392;-4.472;2023-08-24T14:04:37;1.25;1.25;1.00
76238;PMS7003;65043;48.392;-4.472;2023-08-24T14:07:03;2.25;2.25;1.50
76238;PMS7003;65043;48.392;-4.472;2023-08-24T14:09:31;1.00;1.00;1.00
76238;PMS7003;65043;48.392;-4.472;2023-08-24T14:11:57;2.25;2.25;2.00
76238;PMS7003;65043;48.392;-4.472;2023-08-24T14:14:23;2.50;1.00;1.00
76238;PMS7003;65043;48.392;-4.472;2023-08-24T14:16:53;3.00;2.00;1.00
76238;PMS7003;65043;48.392;-4.472;2023-08-24T14:19:20;4.00;3.00;2.00
76238;PMS7003;65043;48.392;-4.472;2023-08-24T14:21:46;2.25;2.25;1.00
76238;PMS7003;65043;48.392;-4.472;2023-08-24T14:24:23;3.00;1.00;1.00
76238;PMS7003;65043;48.392;-4.472;2023-08-24T14:26:49;2.00;1.00;1.00
76238;PMS7003;65043;48.392;-4.472;2023-08-24T14:29:16;5.50;3.00;2.00
76238;PMS7003;65043;48.392;-4.472;2023-08-24T14:31:49;2.00;1.00;0.50